Time;durP1;ratioP1;P1;durP2;ratioP2;P2;SDS_P1;SDS_P2;PMS_P1;PMS_P2;Temp;Humidity;BMP_temperature;BMP_pressure;BME280_temperature;BME280_humidity;BME280_pressure;Samples;Min_cycle;Max_cycle;Signal;HPM_P1;HPM_P2
2022/10/28 00:00:27;;;;;;;12.05;5.88;;;;;;;14.01;98.96;101474.34;5050886;28;20131;-62
2022/10/28 00:02:54;;;;;;;8.75;5.00;;;;;;;14.03;99.03;101468.94;5057941;28;20087;-64
2022/10/28 00:05:22;;;;;;;14.40;5.63;;;;;;;14.01;98.89;101474.34;5046866;28;20057;-65
2022/10/28 00:07:49;;;;;;;7.28;5.15;;;;;;;14.03;99.26;101467.13;5047897;28;20378;-63
2022/10/28 00:10:17;;;;;;;8.50;5.60;;;;;;;14.04;99.13;101462.69;5060183;28;20395;-64
2022/10/28 00:12:44;;;;;;;7.95;5.45;;;;;;;14.03;99.43;101477.72;5051878;28;20155;-64
2022/10/28 00:15:11;;;;;;;14.25;5.65;;;;;;;14.04;99.36;101471.47;5053139;28;20068;-65
2022/10/28 00:17:38;;;;;;;7.75;5.20;;;;;;;14.03;99.10;101467.13;5043229;28;20527;-65
2022/10/28 00:20:06;;;;;;;9.68;5.28;;;;;;;14.04;99.33;101478.56;5052779;28;20070;-64
2022/10/28 00:22:33;;;;;;;10.52;4.50;;;;;;;14.02;99.75;101478.69;5061426;28;20451;-65
2022/10/28 00:25:00;;;;;;;5.95;4.88;;;;;;;14.03;99.20;101483.03;5049382;28;20048;-64
2022/10/28 00:27:28;;;;;;;10.40;4.57;;;;;;;14.02;99.27;101489.28;5051615;28;20404;-65
2022/10/28 00:29:55;;;;;;;8.23;5.45;;;;;;;14.02;99.50;101483.13;5049604;28;20057;-65
2022/10/28 00:32:23;;;;;;;12.63;5.40;;;;;;;14.01;99.42;101477.00;5047495;28;20140;-65
2022/10/28 00:34:50;;;;;;;8.73;4.65;;;;;;;14.02;99.59;101472.53;5056842;28;20059;-66
2022/10/28 00:37:17;;;;;;;11.73;5.50;;;;;;;14.04;99.49;101471.47;5045975;28;20057;-65
2022/10/28 00:39:44;;;;;;;6.75;4.65;;;;;;;14.04;99.52;101470.63;5049719;28;20057;-66
2022/10/28 00:42:14;;;;;;;8.13;5.72;;;;;;;14.04;99.28;101470.63;5052216;28;20060;-66
2022/10/28 00:44:46;;;;;;;6.78;4.70;;;;;;;14.05;99.44;101473.22;5048899;28;20131;-66
2022/10/28 00:47:35;;;;;;;9.35;5.18;;;;;;;14.06;99.28;101472.25;5058999;28;20049;-66
2022/10/28 00:50:34;;;;;;;9.35;5.35;;;;;;;14.06;99.36;101463.47;5041572;28;20087;-65
2022/10/28 00:53:05;;;;;;;9.68;5.90;;;;;;;14.05;99.44;101459.09;5045089;28;20622;-65
2022/10/28 00:55:33;;;;;;;9.00;5.00;;;;;;;14.05;99.41;101456.44;5050429;28;20517;-62
2022/10/28 00:58:01;;;;;;;9.55;6.45;;;;;;;14.03;99.43;101458.34;5060016;28;20047;-66
2022/10/28 01:00:28;;;;;;;9.23;5.40;;;;;;;14.03;99.29;101453.91;5056074;28;20056;-65
2022/10/28 01:02:55;;;;;;;9.98;5.53;;;;;;;14.02;99.57;101451.34;5056711;28;20049;-65
2022/10/28 01:05:26;;;;;;;8.90;5.60;;;;;;;14.01;99.67;101454.97;5029470;28;20041;-66
2022/10/28 01:07:57;;;;;;;9.73;5.85;;;;;;;14.01;99.66;101450.50;5053886;28;20045;-64
2022/10/28 01:10:45;;;;;;;8.55;5.78;;;;;;;14.00;99.51;101453.22;5054240;28;20476;-65
2022/10/28 01:13:34;;;;;;;7.00;5.53;;;;;;;14.01;99.62;101449.66;5047073;28;20142;-68
2022/10/28 01:16:10;;;;;;;8.15;5.07;;;;;;;13.98;99.45;101448.03;5050024;28;20049;-64
2022/10/28 01:18:54;;;;;;;10.55;5.78;;;;;;;13.98;99.45;101453.34;5052254;28;20065;-65
2022/10/28 01:21:47;;;;;;;7.72;4.88;;;;;;;13.99;99.68;101451.53;5053104;28;20085;-65
2022/10/28 01:24:30;;;;;;;9.70;6.13;;;;;;;13.98;99.57;101445.38;5046289;28;20569;-64
2022/10/28 01:27:05;;;;;;;10.40;5.68;;;;;;;13.98;99.54;101440.09;5042611;28;20048;-65
2022/10/28 01:29:58;;;;;;;;;;;;;;;13.99;99.47;101440.94;5066580;28;20058;-65
2022/10/28 01:32:30;;;;;;;7.78;4.90;;;;;;;13.96;99.41;101435.81;5032776;28;20011;-61
2022/10/28 01:35:03;;;;;;;10.48;6.13;;;;;;;13.94;99.99;101435.94;5069027;28;20524;-63
2022/10/28 01:37:35;;;;;;;10.60;6.00;;;;;;;13.91;100.00;101433.44;5052417;28;20080;-65
2022/10/28 01:40:07;;;;;;;9.50;5.30;;;;;;;13.91;100.00;101436.09;5047082;28;20124;-65
2022/10/28 01:42:52;;;;;;;9.35;4.93;;;;;;;13.89;100.00;101424.75;5045710;28;20136;-67
2022/10/28 01:45:25;;;;;;;12.70;5.70;;;;;;;13.91;100.00;101433.44;5043643;28;20124;-65
2022/10/28 01:47:58;;;;;;;14.63;5.60;;;;;;;13.88;100.00;101423.06;5029187;28;20048;-63
2022/10/28 01:50:34;;;;;;;9.13;6.00;;;;;;;13.87;100.00;101416.94;5056677;28;20583;-63
2022/10/28 01:53:06;;;;;;;9.38;4.93;;;;;;;13.87;100.00;101421.38;5047986;28;20133;-66
2022/10/28 01:55:37;;;;;;;8.93;4.68;;;;;;;13.83;100.00;101417.22;5057706;28;20682;-64
2022/10/28 01:58:05;;;;;;;10.93;5.75;;;;;;;13.82;100.00;101418.97;5048837;28;20040;-65
2022/10/28 02:00:33;;;;;;;13.63;5.70;;;;;;;13.82;100.00;101418.13;5056100;28;20513;-63
2022/10/28 02:03:00;;;;;;;9.73;5.65;;;;;;;13.81;100.00;101421.72;5046740;28;20132;-63
2022/10/28 02:05:48;;;;;;;9.13;5.20;;;;;;;13.79;100.00;101421.81;5066168;28;20417;-66
2022/10/28 02:08:17;;;;;;;11.30;5.95;;;;;;;13.80;100.00;101414.72;5049123;28;20056;-66
2022/10/28 02:10:59;;;;;;;10.48;5.13;;;;;;;13.81;100.00;101413.78;5056664;28;20161;-65
2022/10/28 02:13:47;;;;;;;10.18;5.90;;;;;;;13.79;100.00;101403.28;5055248;28;20408;-65
2022/10/28 02:16:30;;;;;;;7.93;4.82;;;;;;;13.78;100.00;101408.66;5049178;28;20049;-63
2022/10/28 02:19:00;;;;;;;8.60;5.55;;;;;;;13.76;100.00;101406.13;5066917;28;20044;-64
2022/10/28 02:21:41;;;;;;;10.43;5.95;;;;;;;13.75;100.00;101407.06;5059268;28;20138;-65
2022/10/28 02:24:22;;;;;;;11.63;5.35;;;;;;;13.74;100.00;101405.38;5040436;28;20053;-62
2022/10/28 02:26:56;;;;;;;10.98;5.50;;;;;;;13.72;100.00;101401.94;5032160;28;20088;-66
2022/10/28 02:29:32;;;;;;;8.27;5.28;;;;;;;13.70;100.00;101403.84;5060238;28;20048;-63
2022/10/28 02:32:05;;;;;;;9.70;5.65;;;;;;;13.67;100.00;101394.28;5058839;28;20087;-64
2022/10/28 02:34:37;;;;;;;12.63;5.50;;;;;;;13.70;100.00;101397.72;5043360;28;20052;-66
2022/10/28 02:37:12;;;;;;;9.57;5.60;;;;;;;13.69;100.00;101404.81;5056938;28;20062;-66
2022/10/28 02:39:42;;;;;;;9.68;4.80;;;;;;;13.66;100.00;101404.97;5058788;28;20142;-64
2022/10/28 02:42:20;;;;;;;10.15;5.05;;;;;;;13.65;100.00;101417.34;5054260;28;20045;-65
2022/10/28 02:44:51;;;;;;;8.38;5.55;;;;;;;13.63;100.00;101418.38;5047064;28;20136;-64
2022/10/28 02:47:20;;;;;;;7.72;5.03;;;;;;;13.61;100.00;101415.81;5063002;28;20140;-66
2022/10/28 02:49:52;;;;;;;11.98;5.50;;;;;;;13.63;100.00;101402.50;5044816;28;20140;-65
2022/10/28 02:52:20;;;;;;;12.23;6.05;;;;;;;13.64;100.00;101396.25;5051157;28;20483;-65
2022/10/28 02:54:52;;;;;;;9.35;5.43;;;;;;;13.64;100.00;101397.13;5053232;28;20068;-65
2022/10/28 02:57:24;;;;;;;5.32;4.38;;;;;;;13.65;100.00;101405.91;5054909;28;20059;-66
2022/10/28 03:00:00;;;;;;;7.78;4.25;;;;;;;13.64;100.00;101404.19;5052234;28;20035;-64
2022/10/28 03:02:27;;;;;;;8.02;4.28;;;;;;;13.59;100.00;101409.75;5040779;28;20161;-66
2022/10/28 03:04:54;;;;;;;8.55;5.25;;;;;;;13.58;100.00;101410.72;5044742;28;20054;-65
2022/10/28 03:07:22;;;;;;;9.05;5.00;;;;;;;13.57;100.00;101406.38;5045623;28;20051;-65
2022/10/28 03:09:50;;;;;;;6.22;4.22;;;;;;;13.58;100.00;101404.56;5055135;28;20064;-65
2022/10/28 03:12:17;;;;;;;9.63;4.97;;;;;;;13.60;100.00;101406.19;5045368;28;20077;-65
2022/10/28 03:14:44;;;;;;;10.50;4.95;;;;;;;13.60;100.00;101406.19;5051179;28;20080;-64
2022/10/28 03:17:11;;;;;;;6.80;5.07;;;;;;;13.62;100.00;101403.44;5059668;28;20401;-64
2022/10/28 03:19:38;;;;;;;8.43;4.53;;;;;;;13.60;100.00;101389.47;5062614;28;20596;-64
2022/10/28 03:22:05;;;;;;;8.82;4.60;;;;;;;13.59;100.00;101388.59;5057117;28;20049;-66
2022/10/28 03:24:32;;;;;;;12.75;5.00;;;;;;;13.59;100.00;101391.25;5054691;28;20140;-65
2022/10/28 03:27:00;;;;;;;10.65;4.82;;;;;;;13.59;100.00;101385.09;5053866;28;20080;-64
2022/10/28 03:29:27;;;;;;;15.73;5.65;;;;;;;13.60;100.00;101384.19;5070686;28;20108;-64
2022/10/28 03:31:54;;;;;;;8.85;4.88;;;;;;;13.58;100.00;101384.25;5053972;28;20069;-65
2022/10/28 03:34:21;;;;;;;7.97;4.60;;;;;;;13.58;100.00;101383.41;5063226;28;20109;-64
2022/10/28 03:36:48;;;;;;;11.68;5.97;;;;;;;13.58;100.00;101386.06;5051358;28;20041;-65
2022/10/28 03:39:16;;;;;;;9.77;5.50;;;;;;;13.57;100.00;101387.84;5057689;28;20585;-65
2022/10/28 03:41:43;;;;;;;7.82;5.60;;;;;;;13.54;100.00;101403.88;5061589;28;20076;-66
2022/10/28 03:44:10;;;;;;;8.80;5.15;;;;;;;13.51;100.00;101409.38;5052006;28;20065;-65
2022/10/28 03:46:37;;;;;;;10.85;4.80;;;;;;;13.49;100.00;101415.69;5053292;28;20076;-65
2022/10/28 03:49:05;;;;;;;13.35;5.18;;;;;;;13.47;100.00;101413.16;5065591;28;20072;-66
2022/10/28 03:51:32;;;;;;;9.82;5.00;;;;;;;13.44;100.00;101421.25;5053747;28;20183;-66
2022/10/28 03:53:59;;;;;;;9.88;5.80;;;;;;;13.40;100.00;101412.63;5056134;28;20481;-66
2022/10/28 03:56:26;;;;;;;8.15;5.07;;;;;;;13.42;100.00;101408.13;5046625;28;20073;-64
2022/10/28 03:58:53;;;;;;;11.02;5.45;;;;;;;13.47;100.00;101410.50;5062695;28;20072;-66
2022/10/28 04:01:20;;;;;;;6.97;4.82;;;;;;;13.46;100.00;101408.78;5055966;28;20139;-63
2022/10/28 04:03:48;;;;;;;7.32;4.82;;;;;;;13.46;100.00;101395.53;5048804;28;20223;-64
2022/10/28 04:06:15;;;;;;;10.25;4.85;;;;;;;13.48;100.00;101406.91;5061547;28;20071;-65
2022/10/28 04:08:43;;;;;;;9.52;5.13;;;;;;;13.51;100.00;101395.28;5058187;28;20143;-64
2022/10/28 04:11:10;;;;;;;9.35;4.95;;;;;;;13.50;100.00;101393.59;5047565;28;20051;-64
2022/10/28 04:13:37;;;;;;;9.02;5.38;;;;;;;13.51;100.00;101382.94;5055242;28;20763;-62
2022/10/28 04:16:05;;;;;;;9.25;5.47;;;;;;;13.52;100.00;101391.72;5046325;28;20123;-65
2022/10/28 04:18:32;;;;;;;9.73;5.15;;;;;;;13.51;100.00;101385.56;5048564;28;20128;-64
2022/10/28 04:20:59;;;;;;;10.52;5.25;;;;;;;13.49;100.00;101379.50;5054032;28;20124;-64
2022/10/28 04:23:26;;;;;;;6.80;4.88;;;;;;;13.49;100.00;101389.25;5046169;28;20057;-64
2022/10/28 04:25:53;;;;;;;13.35;5.80;;;;;;;13.46;100.00;101398.19;5051281;28;20060;-64
2022/10/28 04:28:23;;;;;;;9.70;5.25;;;;;;;13.43;100.00;101396.59;5052398;28;20409;-65
2022/10/28 04:30:50;;;;;;;7.75;4.68;;;;;;;13.42;100.00;101400.19;5050373;28;20091;-65
2022/10/28 04:33:17;;;;;;;9.73;5.05;;;;;;;13.41;100.00;101394.97;5053843;28;20133;-63
2022/10/28 04:35:44;;;;;;;11.18;5.13;;;;;;;13.39;100.00;101384.50;5063640;28;20617;-65
2022/10/28 04:38:13;;;;;;;11.75;6.07;;;;;;;13.40;100.00;101385.34;5062205;28;20054;-65
2022/10/28 04:40:40;;;;;;;10.70;5.15;;;;;;;13.39;100.00;101388.94;5043750;28;20076;-61
2022/10/28 04:43:07;;;;;;;10.63;5.40;;;;;;;13.39;100.00;101383.66;5056304;28;20593;-63
2022/10/28 04:45:37;;;;;;;10.48;5.63;;;;;;;13.38;100.00;101388.09;5058019;28;20057;-66
2022/10/28 04:48:04;;;;;;;8.55;5.95;;;;;;;13.37;100.00;101388.16;5051952;28;20091;-63
2022/10/28 04:50:32;;;;;;;8.32;4.82;;;;;;;13.36;100.00;101383.81;5042730;28;20085;-65
2022/10/28 04:52:59;;;;;;;14.07;5.47;;;;;;;13.36;100.00;101381.16;5066389;28;20092;-64
2022/10/28 04:55:26;;;;;;;9.40;5.32;;;;;;;13.35;100.00;101380.31;5053504;28;20128;-64
2022/10/28 04:57:55;;;;;;;10.82;5.18;;;;;;;13.37;100.00;101374.94;5055981;28;20049;-65
2022/10/28 05:00:22;;;;;;;9.68;5.30;;;;;;;13.35;100.00;101364.44;5066394;28;20083;-65
2022/10/28 05:02:50;;;;;;;9.98;5.45;;;;;;;13.33;100.00;101370.78;5057927;28;20084;-62
2022/10/28 05:05:17;;;;;;;7.80;5.15;;;;;;;13.32;100.00;101374.34;5057674;28;20056;-65
2022/10/28 05:07:44;;;;;;;9.00;5.70;;;;;;;13.31;100.00;101375.31;5046920;28;20533;-65
2022/10/28 05:10:14;;;;;;;10.48;5.60;;;;;;;13.30;100.00;101376.25;5046150;28;20049;-64
2022/10/28 05:12:42;;;;;;;9.88;5.63;;;;;;;13.25;100.00;101373.03;5053527;28;20074;-65
2022/10/28 05:15:10;;;;;;;8.38;5.78;;;;;;;13.25;100.00;101370.38;5034625;28;20107;-64
2022/10/28 05:17:44;;;;;;;10.35;5.35;;;;;;;13.23;100.00;101367.81;5039134;28;20053;-64
2022/10/28 05:20:14;;;;;;;9.15;5.28;;;;;;;13.23;100.00;101373.09;5053488;28;20080;-64
2022/10/28 05:22:45;;;;;;;8.10;5.57;;;;;;;13.23;100.00;101372.25;5045693;28;20521;-63
2022/10/28 05:25:12;;;;;;;9.98;5.70;;;;;;;13.23;100.00;101375.72;5059896;28;20044;-65
2022/10/28 05:27:39;;;;;;;14.00;5.35;;;;;;;13.24;100.00;101372.19;5051366;28;20077;-64
2022/10/28 05:30:08;;;;;;;11.93;5.75;;;;;;;13.24;100.00;101366.88;5050735;28;20127;-66
2022/10/28 05:32:35;;;;;;;14.93;5.68;;;;;;;13.26;100.00;101358.84;5049883;28;20089;-66
2022/10/28 05:35:03;;;;;;;10.63;5.80;;;;;;;13.26;100.00;101356.22;5058714;28;20076;-65
2022/10/28 05:37:30;;;;;;;8.90;5.57;;;;;;;13.25;100.00;101370.38;5048893;28;20075;-64
2022/10/28 05:39:57;;;;;;;9.10;5.47;;;;;;;13.22;100.00;101363.47;5053054;28;20051;-66
2022/10/28 05:42:25;;;;;;;14.02;6.10;;;;;;;13.18;100.00;101360.09;5063448;28;20448;-63
2022/10/28 05:44:52;;;;;;;10.57;5.75;;;;;;;13.21;100.00;101358.25;5054231;28;20047;-66
2022/10/28 05:47:19;;;;;;;13.02;6.20;;;;;;;13.20;100.00;101351.25;5051989;28;20534;-66
2022/10/28 05:49:46;;;;;;;11.15;6.07;;;;;;;13.21;100.00;101353.81;5054497;28;20084;-66
2022/10/28 05:52:13;;;;;;;14.05;6.78;;;;;;;13.22;100.00;101360.81;5054323;28;20060;-65
2022/10/28 05:54:40;;;;;;;12.00;6.03;;;;;;;13.23;100.00;101356.38;5037976;28;20084;-63
2022/10/28 05:57:08;;;;;;;13.25;6.75;;;;;;;13.24;100.00;101355.44;5053744;28;20445;-66
2022/10/28 05:59:35;;;;;;;14.05;6.57;;;;;;;13.25;100.00;101342.16;5055799;28;20091;-66
2022/10/28 06:02:02;;;;;;;13.65;7.00;;;;;;;13.26;100.00;101343.84;5054709;28;20076;-66
2022/10/28 06:04:30;;;;;;;14.63;5.82;;;;;;;13.26;100.00;101350.94;5046940;28;20139;-66
2022/10/28 06:06:57;;;;;;;19.45;6.68;;;;;;;13.25;100.00;101355.38;5047197;28;20496;-64
2022/10/28 06:09:26;;;;;;;13.43;6.60;;;;;;;13.26;100.00;101357.06;5045941;28;20055;-65
2022/10/28 06:11:53;;;;;;;8.93;5.57;;;;;;;13.24;100.00;101353.66;5045421;28;20569;-64
2022/10/28 06:14:20;;;;;;;11.77;6.18;;;;;;;13.23;100.00;101353.72;5058793;28;20062;-64
2022/10/28 06:16:47;;;;;;;11.07;6.05;;;;;;;13.27;100.00;101345.53;5054412;28;20193;-66
2022/10/28 06:19:14;;;;;;;14.50;6.55;;;;;;;13.31;100.00;101347.06;5057634;28;20131;-65
2022/10/28 06:21:41;;;;;;;16.15;6.28;;;;;;;13.32;100.00;101340.81;5051544;28;20143;-66
2022/10/28 06:24:09;;;;;;;16.02;5.25;;;;;;;13.31;100.00;101339.13;5054234;28;20141;-64
2022/10/28 06:26:40;;;;;;;9.63;5.95;;;;;;;13.33;100.00;101337.25;5053304;28;20441;-65
2022/10/28 06:29:09;;;;;;;9.85;5.55;;;;;;;13.37;100.00;101348.47;5056670;28;20799;-65
2022/10/28 06:31:40;;;;;;;19.52;7.18;;;;;;;13.35;100.00;101345.94;5048047;28;20045;-65
2022/10/28 06:34:11;;;;;;;11.40;5.90;;;;;;;13.35;100.00;101348.59;5041015;28;20683;-64
2022/10/28 06:36:38;;;;;;;12.07;6.00;;;;;;;13.38;100.00;101353.69;5051572;28;20057;-66
2022/10/28 06:39:05;;;;;;;12.65;6.88;;;;;;;13.42;100.00;101351.72;5050754;28;20048;-63
2022/10/28 06:41:33;;;;;;;10.38;5.18;;;;;;;13.43;100.00;101349.00;5056406;28;20063;-66
2022/10/28 06:44:01;;;;;;;10.60;5.40;;;;;;;13.47;100.00;101351.47;5055934;28;20052;-66
2022/10/28 06:46:28;;;;;;;13.90;6.57;;;;;;;13.51;100.00;101334.44;5064043;28;20550;-65
2022/10/28 06:48:56;;;;;;;9.55;5.85;;;;;;;13.53;100.00;101335.22;5052799;28;20124;-66
2022/10/28 06:51:24;;;;;;;18.92;6.20;;;;;;;13.55;100.00;101336.81;5054612;28;20076;-65
2022/10/28 06:53:51;;;;;;;11.45;6.32;;;;;;;13.57;100.00;101326.16;5065841;28;20518;-65
2022/10/28 06:56:18;;;;;;;8.63;5.60;;;;;;;13.57;100.00;101328.81;5059704;28;20139;-64
2022/10/28 06:58:52;;;;;;;12.65;5.95;;;;;;;13.62;100.00;101340.78;5052523;28;20083;-66
2022/10/28 07:01:20;;;;;;;13.18;6.68;;;;;;;13.61;100.00;101352.34;5048972;28;20080;-65
2022/10/28 07:03:48;;;;;;;14.02;6.40;;;;;;;13.64;100.00;101348.63;5047567;28;20053;-64
2022/10/28 07:06:15;;;;;;;15.25;5.68;;;;;;;13.65;100.00;101337.97;5046808;28;20072;-66
2022/10/28 07:08:43;;;;;;;9.70;5.60;;;;;;;13.70;100.00;101353.56;5059813;28;20587;-66
2022/10/28 07:11:11;;;;;;;12.57;5.55;;;;;;;13.75;100.00;101358.59;5039942;28;20135;-63
2022/10/28 07:13:39;;;;;;;13.68;5.60;;;;;;;13.72;100.00;101367.56;5065166;28;20056;-66
2022/10/28 07:16:08;;;;;;;10.15;6.00;;;;;;;13.74;100.00;101356.91;5050529;28;20136;-64
2022/10/28 07:18:35;;;;;;;6.72;5.00;;;;;;;13.79;100.00;101363.59;5063672;28;20175;-62
2022/10/28 07:21:02;;;;;;;13.10;6.05;;;;;;;13.79;100.00;101363.59;5064067;28;20171;-65
2022/10/28 07:23:31;;;;;;;13.25;5.63;;;;;;;13.80;100.00;101364.44;5071913;28;20071;-66
2022/10/28 07:25:58;;;;;;;10.00;5.35;;;;;;;13.84;100.00;101358.88;5062583;28;20128;-66
2022/10/28 07:28:26;;;;;;;10.82;5.68;;;;;;;13.90;100.00;101357.66;5046148;28;20060;-66
2022/10/28 07:30:54;;;;;;;11.65;5.28;;;;;;;13.96;100.00;101356.41;5049723;28;20063;-64
2022/10/28 07:33:21;;;;;;;10.75;5.35;;;;;;;14.02;100.00;101358.69;5060688;28;20197;-65
2022/10/28 07:35:48;;;;;;;8.25;4.90;;;;;;;14.08;100.00;101358.31;5046097;28;20057;-64
2022/10/28 07:38:15;;;;;;;9.80;5.05;;;;;;;14.12;100.00;101362.47;5066251;28;20054;-65
2022/10/28 07:40:42;;;;;;;8.30;4.97;;;;;;;14.14;100.00;101361.44;5060099;28;20053;-64
2022/10/28 07:43:09;;;;;;;13.30;5.18;;;;;;;14.13;100.00;101359.72;5059951;28;20045;-65
2022/10/28 07:45:37;;;;;;;10.43;5.25;;;;;;;14.22;100.00;101349.50;5041357;28;20156;-61
2022/10/28 07:48:04;;;;;;;15.45;5.65;;;;;;;14.26;100.00;101357.16;5039816;28;20161;-65
2022/10/28 07:50:31;;;;;;;9.63;4.93;;;;;;;14.30;100.00;101344.59;5056126;28;20079;-66
2022/10/28 07:52:59;;;;;;;9.00;4.90;;;;;;;14.34;100.00;101344.28;5053368;28;20048;-65
2022/10/28 07:55:26;;;;;;;8.55;5.28;;;;;;;14.41;100.00;101342.13;5066657;28;20056;-64
2022/10/28 07:57:53;;;;;;;10.38;5.55;;;;;;;14.46;100.00;101349.78;5057392;28;20536;-66
2022/10/28 08:00:21;;;;;;;8.43;4.47;;;;;;;14.50;100.00;101356.59;5046760;28;20050;-66
2022/10/28 08:02:48;;;;;;;11.63;5.55;;;;;;;14.52;100.00;101354.72;5044978;28;20161;-64
2022/10/28 08:05:16;;;;;;;12.88;5.18;;;;;;;14.56;100.00;101351.75;5055638;28;20411;-64
2022/10/28 08:07:43;;;;;;;6.90;4.68;;;;;;;14.63;100.00;101344.25;5059135;28;20049;-65
2022/10/28 08:10:10;;;;;;;12.23;5.00;;;;;;;14.71;100.00;101351.72;5040827;28;20144;-65
2022/10/28 08:12:37;;;;;;;8.18;4.50;;;;;;;14.79;100.00;101357.38;5047189;28;20120;-64
2022/10/28 08:15:05;;;;;;;10.73;5.35;;;;;;;14.81;100.00;101353.66;5043216;28;20103;-64
2022/10/28 08:17:32;;;;;;;10.20;4.85;;;;;;;14.92;100.00;101366.25;5050866;28;20139;-66
2022/10/28 08:19:59;;;;;;;9.27;4.95;;;;;;;14.97;100.00;101374.75;5047067;28;20616;-64
2022/10/28 08:22:26;;;;;;;9.48;4.78;;;;;;;15.07;100.00;101375.81;5050396;28;20482;-64
2022/10/28 08:24:53;;;;;;;9.63;5.47;;;;;;;15.14;99.52;101379.78;5041259;28;20080;-63
2022/10/28 08:27:22;;;;;;;13.05;5.22;;;;;;;15.25;98.56;101376.41;5053585;28;20056;-66
2022/10/28 08:29:49;;;;;;;19.10;5.57;;;;;;;15.37;97.62;101375.59;5042179;28;20510;-66
2022/10/28 08:32:17;;;;;;;9.73;4.57;;;;;;;15.48;97.57;101358.94;5026432;28;20056;-64
2022/10/28 08:34:44;;;;;;;13.45;5.18;;;;;;;15.53;97.21;101350.66;5027035;28;20176;-65
2022/10/28 08:37:11;;;;;;;7.43;4.93;;;;;;;15.60;96.91;101359.94;5041325;28;20100;-65
2022/10/28 08:39:39;;;;;;;9.73;4.13;;;;;;;15.70;96.94;101361.03;5030476;28;20041;-61
2022/10/28 08:42:18;;;;;;;11.98;4.72;;;;;;;15.76;96.41;101371.25;5032011;28;20048;-64
2022/10/28 08:44:57;;;;;;;12.48;4.13;;;;;;;15.83;95.88;101380.47;5037165;28;20057;-65
2022/10/28 08:47:30;;;;;;;10.82;3.85;;;;;;;15.79;95.71;101380.78;5032658;28;20071;-63
2022/10/28 08:50:18;;;;;;;11.20;4.88;;;;;;;15.74;95.89;101378.44;5038805;28;20049;-65
2022/10/28 08:52:56;;;;;;;12.45;3.80;;;;;;;15.74;96.57;101367.81;5050788;28;20061;-65
2022/10/28 08:55:28;;;;;;;10.00;4.28;;;;;;;15.79;96.98;101375.47;5029157;28;20470;-65
2022/10/28 08:58:00;;;;;;;11.48;4.68;;;;;;;15.82;96.99;101375.28;5036975;28;20140;-65
2022/10/28 09:00:30;;;;;;;7.72;4.00;;;;;;;15.86;96.94;101363.47;5033845;28;20045;-64
2022/10/28 09:03:10;;;;;;;10.75;4.57;;;;;;;15.91;96.85;101366.66;5038154;28;20045;-63
2022/10/28 09:05:39;;;;;;;11.60;5.05;;;;;;;15.97;96.73;101376.00;5032569;28;20516;-63
2022/10/28 09:08:18;;;;;;;10.32;4.00;;;;;;;16.05;96.62;101377.16;5026228;28;20054;-65
2022/10/28 09:10:50;;;;;;;8.15;4.22;;;;;;;16.15;96.27;101380.03;5039191;28;20511;-62
2022/10/28 09:13:29;;;;;;;9.88;4.93;;;;;;;16.24;95.72;101367.91;5038604;28;20099;-64
2022/10/28 09:15:58;;;;;;;10.13;4.60;;;;;;;16.30;94.49;101376.31;5031657;22;20060;-62
2022/10/28 09:18:44;;;;;;;8.75;4.22;;;;;;;16.33;93.33;101370.75;5009403;28;20045;-62
2022/10/28 09:21:18;;;;;;;7.75;3.55;;;;;;;16.43;93.16;101352.34;5015825;28;20052;-60
2022/10/28 09:23:53;;;;;;;9.73;3.63;;;;;;;16.53;92.82;101348.06;5023032;28;20076;-61
2022/10/28 09:26:31;;;;;;;6.88;3.97;;;;;;;16.63;91.55;101351.75;5023967;28;20049;-62
2022/10/28 09:29:12;;;;;;;12.00;4.05;;;;;;;16.72;91.41;101339.63;5023662;28;20053;-62
2022/10/28 09:32:05;;;;;;;10.35;3.55;;;;;;;16.83;90.99;101341.50;5020338;28;20390;-62
2022/10/28 09:34:46;;;;;;;10.32;4.15;;;;;;;16.91;91.00;101339.13;5011794;28;20056;-62
2022/10/28 09:37:29;;;;;;;13.60;4.80;;;;;;;17.03;90.23;101335.56;5006921;28;20073;-62
2022/10/28 09:40:02;;;;;;;10.50;3.78;;;;;;;17.13;89.96;101336.56;5009275;28;20134;-62
2022/10/28 09:42:34;;;;;;;12.02;3.70;;;;;;;17.22;89.63;101340.34;5015527;28;20164;-63
2022/10/28 09:45:04;;;;;;;10.02;3.83;;;;;;;17.30;88.29;101345.09;5016731;28;20049;-62
2022/10/28 09:47:36;;;;;;;11.77;3.88;;;;;;;17.40;87.94;101330.97;5021698;28;20507;-62
2022/10/28 09:50:10;;;;;;;12.38;4.28;;;;;;;17.61;85.90;101331.13;5018793;28;20061;-62
2022/10/28 09:52:48;;;;;;;9.13;3.97;;;;;;;17.63;85.31;101339.84;5036537;28;20064;-62
2022/10/28 09:55:19;;;;;;;9.77;4.00;;;;;;;17.71;85.75;101331.25;5017956;28;20138;-62
2022/10/28 09:57:46;;;;;;;10.77;3.63;;;;;;;17.84;84.77;101339.19;5014249;28;20144;-61
2022/10/28 10:00:15;;;;;;;9.10;4.03;;;;;;;17.88;84.33;101330.84;5021144;28;20049;-63
2022/10/28 10:02:43;;;;;;;10.05;3.90;;;;;;;17.99;83.88;101332.63;5020131;28;20132;-62
2022/10/28 10:05:13;;;;;;;18.40;4.78;;;;;;;18.06;84.33;101328.53;5018311;28;20052;-63
2022/10/28 10:07:47;;;;;;;12.73;4.25;;;;;;;18.14;84.40;101319.91;5020008;28;20057;-63
2022/10/28 10:10:21;;;;;;;13.27;3.42;;;;;;;18.28;84.33;101318.81;5015769;28;20049;-63
2022/10/28 10:12:50;;;;;;;10.70;3.70;;;;;;;18.39;84.16;101314.31;5021244;28;20057;-63
2022/10/28 10:15:29;;;;;;;14.80;4.10;;;;;;;18.47;82.55;101311.88;5019752;28;20045;-64
2022/10/28 10:17:59;;;;;;;7.22;3.30;;;;;;;18.47;81.26;101303.03;5021730;28;20095;-64
2022/10/28 10:20:27;;;;;;;12.05;3.50;;;;;;;18.51;81.84;101312.47;5038195;28;20132;-62
2022/10/28 10:22:54;;;;;;;10.10;4.10;;;;;;;18.62;81.63;101312.44;5009436;28;20045;-63
2022/10/28 10:25:24;;;;;;;7.20;3.47;;;;;;;18.67;81.74;101306.72;5026725;28;20157;-63
2022/10/28 10:28:00;;;;;;;10.45;3.83;;;;;;;18.76;81.43;101310.50;5021766;28;20077;-63
2022/10/28 10:30:28;;;;;;;;;;;;;;;18.88;81.25;101293.47;5018973;28;20593;-63
2022/10/28 10:32:56;;;;;;;13.65;3.50;;;;;;;19.08;81.20;101299.81;5014267;28;19932;-63
2022/10/28 10:35:31;;;;;;;13.60;4.00;;;;;;;19.18;80.62;101290.91;5019548;28;20533;-62
2022/10/28 10:38:00;;;;;;;14.88;4.25;;;;;;;19.31;79.93;101292.50;5015138;28;20557;-63
2022/10/28 10:40:33;;;;;;;8.82;3.20;;;;;;;19.45;78.99;101300.19;5018209;28;20053;-64
2022/10/28 10:43:38;;;;;;;16.00;3.97;;;;;;;19.52;77.37;101287.16;5017015;28;20147;-63
2022/10/28 10:46:15;;;;;;;9.77;3.55;;;;;;;19.65;76.53;101290.50;5023033;28;21755;-64
2022/10/28 10:48:43;;;;;;;7.60;2.55;;;;;;;19.78;75.21;101282.28;5023814;28;20053;-63
2022/10/28 10:51:22;;;;;;;7.35;3.72;;;;;;;19.94;74.89;101278.09;5000786;28;20045;-63
2022/10/28 10:53:54;;;;;;;10.73;3.33;;;;;;;20.22;74.04;101279.19;5032199;28;20076;-63
2022/10/28 10:56:23;;;;;;;9.57;3.25;;;;;;;20.42;71.98;101272.06;5021727;28;20111;-63
2022/10/28 10:58:53;;;;;;;10.27;2.78;;;;;;;20.60;71.68;101276.75;5019839;28;20140;-63
2022/10/28 11:01:27;;;;;;;9.45;3.45;;;;;;;20.68;70.82;101269.72;5029100;28;20069;-63
2022/10/28 11:03:58;;;;;;;13.25;3.60;;;;;;;20.85;70.30;101273.53;5024597;28;20135;-63
2022/10/28 11:06:27;;;;;;;10.77;3.42;;;;;;;21.01;70.09;101261.41;5027382;28;20149;-62
2022/10/28 11:09:05;;;;;;;9.65;3.63;;;;;;;21.15;68.46;101269.81;5020659;28;20120;-62
2022/10/28 11:11:35;;;;;;;11.52;3.42;;;;;;;21.26;67.89;101254.59;5015159;28;20048;-63
2022/10/28 11:14:28;;;;;;;10.30;3.35;;;;;;;21.48;67.81;101256.97;5017557;28;20052;-63
2022/10/28 11:16:59;;;;;;;8.70;2.83;;;;;;;21.66;66.71;101249.84;5010213;28;20055;-63
2022/10/28 11:19:31;;;;;;;12.85;3.53;;;;;;;21.84;65.08;101259.78;5023140;28;20053;-63
2022/10/28 11:22:25;;;;;;;13.70;3.42;;;;;;;22.03;63.51;101265.06;5024403;28;20055;-63
2022/10/28 11:25:42;;;;;;;8.10;3.30;;;;;;;22.20;63.23;101261.59;5023562;28;20081;-63
2022/10/28 11:28:27;;;;;;;14.02;3.75;;;;;;;22.44;63.38;101257.50;4998190;28;20054;-63
2022/10/28 11:31:20;;;;;;;18.33;4.03;;;;;;;22.59;61.99;101255.97;5013375;28;20075;-63
2022/10/28 11:34:15;;;;;;;9.50;3.50;;;;;;;22.79;62.02;101251.28;5023717;28;20496;-63